»·PEaware :: N160RA KSBP-KAJO

N160RA :: KSBP-KAJO

FLIGHT INFORMATION

Flight Status: Arrived
Operator: Privately registered:
United States
More flights under this callsign
Pilot: Cody B. (17747)
Aircraft: CESSNA 172 SKYHAWK
(C172)
More flights by this aircraft type
Origin: KSBP San Luis Co Regl
United States
Destination: KAJO Corona Mun
United States
More flights between these airports :: More routes between these airports
Route: RZS V186 PDZ
File this flight plan on PilotEdge
Remarks: TEC route SBAP51
Altitude:
(Current/Filed)
7,000ft
Speed:
(Current/Filed)
110kts
Departed: 12-Feb-20 04:55 PM
Arrived: 12-Feb-20 06:41 PM
Distance/Time
Traveled:
170nm/1:45
Distance/Time
To Go:
Arrived

Flight Plot

Page will automatically refresh every two minutes.


Map Options




Map Legend


Flown Route
Filed Route
Departure Airport
Arrival Airport
Navaid (VOR, NDB)
Fix

Horizontal Profiles

Position Reports

Time Latitude Longitude Heading Altitude Ground
Speed
12-Feb-20 16:10 35.238250 -120.637701 90 200ft 0kts
12-Feb-20 16:11 35.238250 -120.637701 90 200ft 0kts
12-Feb-20 16:12 35.238250 -120.637701 90 200ft 0kts
12-Feb-20 16:13 35.238250 -120.637701 90 200ft 0kts
12-Feb-20 16:14 35.238250 -120.637701 90 200ft 0kts
12-Feb-20 16:15 35.238250 -120.637701 90 200ft 0kts
12-Feb-20 16:16 35.238250 -120.637701 90 200ft 0kts
12-Feb-20 16:18 35.238250 -120.637701 90 200ft 0kts
12-Feb-20 16:19 35.238250 -120.637701 90 200ft 0kts
12-Feb-20 16:20 35.238250 -120.637701 90 200ft 0kts
12-Feb-20 16:21 35.238250 -120.637701 90 200ft 0kts
12-Feb-20 16:22 35.238250 -120.637701 90 200ft 0kts
12-Feb-20 16:23 35.238250 -120.637701 90 200ft 0kts
12-Feb-20 16:24 35.238250 -120.637701 90 200ft 0kts
12-Feb-20 16:25 35.238250 -120.637700 90 200ft 0kts
12-Feb-20 16:26 35.238250 -120.637701 90 200ft 0kts
12-Feb-20 16:27 35.238250 -120.637701 90 200ft 0kts
12-Feb-20 16:28 35.238250 -120.637701 90 200ft 0kts
12-Feb-20 16:29 35.238250 -120.637701 90 200ft 0kts
12-Feb-20 16:30 35.238250 -120.637701 90 200ft 0kts
12-Feb-20 16:31 35.238250 -120.637701 90 200ft 0kts
12-Feb-20 16:32 35.238250 -120.637701 90 200ft 0kts
12-Feb-20 16:33 35.238250 -120.637701 90 200ft 0kts
12-Feb-20 16:33 35.238250 -120.637701 90 200ft 0kts
12-Feb-20 16:35 35.238250 -120.637701 90 200ft 0kts
12-Feb-20 16:36 35.238250 -120.637701 90 200ft 0kts
12-Feb-20 16:36 35.238250 -120.637701 90 200ft 0kts
12-Feb-20 16:37 35.238250 -120.637701 90 200ft 0kts
12-Feb-20 16:39 35.238250 -120.637701 90 200ft 0kts
12-Feb-20 16:40 35.238250 -120.637701 90 200ft 0kts
12-Feb-20 16:40 35.238250 -120.637701 90 200ft 0kts
12-Feb-20 16:41 35.238250 -120.637701 90 200ft 0kts
12-Feb-20 16:43 35.238250 -120.637701 90 200ft 0kts
12-Feb-20 16:43 35.238250 -120.637701 90 200ft 0kts
12-Feb-20 16:44 35.238250 -120.637701 90 200ft 0kts
12-Feb-20 16:45 35.238250 -120.637701 90 200ft 0kts
12-Feb-20 16:46 35.238250 -120.637701 90 200ft 0kts
12-Feb-20 16:47 35.238250 -120.637701 90 200ft 0kts
12-Feb-20 16:48 35.238123 -120.637543 167 200ft 5kts
12-Feb-20 16:49 35.236367 -120.637403 126 201ft 5kts
12-Feb-20 16:50 35.235270 -120.635461 124 209ft 8kts
12-Feb-20 16:51 35.233679 -120.632656 126 212ft 5kts
12-Feb-20 16:52 35.233053 -120.632299 237 212ft 0kts
12-Feb-20 16:53 35.232784 -120.632967 285 211ft 10kts
12-Feb-20 16:54 35.242787 -120.648223 306 558ft 87kts
12-Feb-20 16:55 35.255739 -120.673216 291 1369ft 87kts
12-Feb-20 16:56 35.266961 -120.700069 300 2089ft 93kts
12-Feb-20 16:57 35.280363 -120.726231 300 2861ft 86kts
12-Feb-20 16:58 35.292272 -120.750699 300 3562ft 81kts
12-Feb-20 16:59 35.302588 -120.773441 273 4252ft 71kts
12-Feb-20 17:00 35.286145 -120.775363 150 4761ft 85kts
12-Feb-20 17:01 35.265520 -120.761139 154 5307ft 87kts
12-Feb-20 17:02 35.244806 -120.747357 142 5856ft 85kts
12-Feb-20 17:03 35.228655 -120.725737 133 6361ft 87kts
12-Feb-20 17:04 35.211843 -120.702967 132 6874ft 93kts
12-Feb-20 17:05 35.191364 -120.675492 132 6989ft 126kts
12-Feb-20 17:06 35.169458 -120.646282 132 6985ft 110kts
12-Feb-20 17:07 35.148493 -120.618261 132 6987ft 113kts
12-Feb-20 17:08 35.126909 -120.589437 132 6987ft 115kts
12-Feb-20 17:09 35.105116 -120.560347 132 6987ft 116kts
12-Feb-20 17:10 35.083286 -120.531237 132 6987ft 116kts
12-Feb-20 17:11 35.061397 -120.502069 132 6986ft 117kts
12-Feb-20 17:12 35.038610 -120.471716 132 6987ft 123kts
12-Feb-20 17:13 35.015247 -120.440637 132 6987ft 124kts
12-Feb-20 17:14 34.991988 -120.409071 130 6987ft 125kts
12-Feb-20 17:15 34.968786 -120.377467 131 6987ft 124kts
12-Feb-20 17:16 34.945309 -120.346131 132 6986ft 124kts
12-Feb-20 17:17 34.921657 -120.314740 132 6986ft 126kts
12-Feb-20 17:18 34.897762 -120.283077 132 6985ft 126kts
12-Feb-20 17:19 34.873978 -120.251605 132 6984ft 125kts
12-Feb-20 17:20 34.850333 -120.220344 132 6984ft 125kts
12-Feb-20 17:21 34.826610 -120.189009 132 6984ft 125kts
12-Feb-20 17:22 34.802835 -120.157635 132 6986ft 126kts
12-Feb-20 17:23 34.778963 -120.126123 132 6988ft 126kts
12-Feb-20 17:24 34.754996 -120.094584 131 6991ft 126kts
12-Feb-20 17:25 34.731030 -120.063060 131 6992ft 126kts
12-Feb-20 17:26 34.707130 -120.031641 131 6994ft 126kts
12-Feb-20 17:27 34.683141 -120.000130 131 6994ft 126kts
12-Feb-20 17:28 34.659209 -119.968728 131 6994ft 126kts
12-Feb-20 17:29 34.635258 -119.937321 131 6994ft 126kts
12-Feb-20 17:30 34.611266 -119.905890 131 6994ft 126kts
12-Feb-20 17:31 34.587324 -119.874555 131 6994ft 126kts
12-Feb-20 17:32 34.563234 -119.843055 131 6994ft 126kts
12-Feb-20 17:33 34.539210 -119.811672 131 6995ft 126kts
12-Feb-20 17:34 34.515250 -119.780398 131 6995ft 126kts
12-Feb-20 17:35 34.494624 -119.745616 121 6995ft 127kts
12-Feb-20 17:36 34.475088 -119.709924 120 6995ft 127kts
12-Feb-20 17:37 34.455657 -119.674248 120 6995ft 126kts
12-Feb-20 17:38 34.436234 -119.638584 120 6995ft 126kts
12-Feb-20 17:39 34.419610 -119.608095 120 6995ft 126kts
12-Feb-20 17:40 34.401380 -119.574690 120 6995ft 126kts
12-Feb-20 17:41 34.381955 -119.539131 120 6995ft 126kts
12-Feb-20 17:42 34.362524 -119.503587 121 6995ft 126kts
12-Feb-20 17:43 34.343070 -119.468050 121 6996ft 126kts
12-Feb-20 17:44 34.323528 -119.432386 121 6996ft 126kts
12-Feb-20 17:45 34.318050 -119.392402 82 6995ft 121kts
12-Feb-20 17:46 34.320308 -119.351644 80 6996ft 121kts
12-Feb-20 17:47 34.323057 -119.312699 80 6994ft 121kts
12-Feb-20 17:48 34.326053 -119.272012 81 6994ft 120kts
12-Feb-20 17:49 34.329023 -119.231676 81 6994ft 120kts
12-Feb-20 17:50 34.332024 -119.191139 81 6995ft 121kts
12-Feb-20 17:51 34.335021 -119.150559 81 6995ft 120kts
12-Feb-20 17:52 34.337981 -119.110075 81 6995ft 120kts
12-Feb-20 17:53 34.340945 -119.069517 81 6995ft 120kts
12-Feb-20 17:54 34.343881 -119.028782 82 6995ft 120kts
12-Feb-20 17:55 34.346834 -118.988177 82 6996ft 120kts
12-Feb-20 17:56 34.349747 -118.947789 82 6998ft 120kts
12-Feb-20 17:57 34.352653 -118.907259 82 7000ft 120kts
12-Feb-20 17:58 34.348797 -118.867390 108 7001ft 122kts
12-Feb-20 17:59 34.338600 -118.828220 108 7003ft 121kts
12-Feb-20 18:00 34.326192 -118.789818 111 7004ft 122kts
12-Feb-20 18:01 34.313196 -118.751777 111 7004ft 122kts
12-Feb-20 18:02 34.300581 -118.714929 111 7004ft 122kts
12-Feb-20 18:03 34.287576 -118.677046 111 7005ft 122kts
12-Feb-20 18:04 34.274636 -118.639424 111 7003ft 117kts
12-Feb-20 18:05 34.262278 -118.603498 111 7004ft 114kts
12-Feb-20 18:06 34.250125 -118.568212 111 7004ft 113kts
12-Feb-20 18:07 34.237954 -118.532927 111 7004ft 113kts
12-Feb-20 18:08 34.225784 -118.497679 111 7004ft 113kts
12-Feb-20 18:09 34.214713 -118.461987 109 7004ft 113kts
12-Feb-20 18:10 34.203775 -118.426127 109 7004ft 113kts
12-Feb-20 18:11 34.192845 -118.390262 109 7004ft 113kts
12-Feb-20 18:12 34.181888 -118.354322 109 7005ft 115kts
12-Feb-20 18:13 34.170946 -118.318494 110 7004ft 119kts
12-Feb-20 18:14 34.160906 -118.285657 110 7004ft 119kts
12-Feb-20 18:15 34.148769 -118.245499 110 7004ft 120kts
12-Feb-20 18:16 34.137227 -118.207670 110 7004ft 120kts
12-Feb-20 18:17 34.125743 -118.170207 110 7003ft 120kts
12-Feb-20 18:18 34.114236 -118.132747 110 7004ft 120kts
12-Feb-20 18:19 34.102905 -118.095842 110 7004ft 120kts
12-Feb-20 18:20 34.091544 -118.058865 110 7003ft 120kts
12-Feb-20 18:21 34.080052 -118.021621 110 6704ft 124kts
12-Feb-20 18:22 34.067914 -117.982245 111 6139ft 128kts
12-Feb-20 18:23 34.056488 -117.945206 111 5648ft 123kts
12-Feb-20 18:24 34.044810 -117.907404 111 5154ft 121kts
12-Feb-20 18:25 34.033526 -117.870866 112 4992ft 112kts
12-Feb-20 18:26 34.022680 -117.835847 112 4991ft 112kts
12-Feb-20 18:28 34.011666 -117.800374 112 4991ft 113kts
12-Feb-20 18:29 33.996381 -117.767250 126 4709ft 116kts
12-Feb-20 18:30 33.977848 -117.734865 126 4209ft 118kts
12-Feb-20 18:31 33.959806 -117.703219 126 3989ft 94kts
12-Feb-20 18:32 33.946230 -117.678719 126 3983ft 83kts
12-Feb-20 18:33 33.932940 -117.654781 126 3986ft 87kts
12-Feb-20 18:34 33.924024 -117.626662 89 3739ft 95kts
12-Feb-20 18:35 33.928050 -117.592648 87 3123ft 98kts
12-Feb-20 18:36 33.927636 -117.560364 98 2469ft 95kts
12-Feb-20 18:37 33.912449 -117.542451 164 1860ft 71kts
12-Feb-20 18:38 33.900584 -117.555514 258 1426ft 63kts
12-Feb-20 18:39 33.897794 -117.576493 271 1011ft 66kts
12-Feb-20 18:40 33.897733 -117.598012 265 546ft 60kts
12-Feb-20 18:41 33.897260 -117.603608 100 537ft 3kts
12-Feb-20 18:42 33.897263 -117.600560 88 537ft 5kts
12-Feb-20 18:43 33.896979 -117.601983 359 537ft 2kts
12-Feb-20 18:44 33.897009 -117.601983 359 537ft 0kts

Navigation Log

Ident Type
Flight plan parsing failed, navigation log unavailable